Time;durP1;ratioP1;P1;durP2;ratioP2;P2;SDS_P1;SDS_P2;PMS_P1;PMS_P2;Temp;Humidity;BMP_temperature;BMP_pressure;BME280_temperature;BME280_humidity;BME280_pressure;Samples;Min_cycle;Max_cycle;Signal;HPM_P1;HPM_P2
2023/09/07 00:01:16;;;;;;;0.20;0.20;;;;;;;18.31;100.00;100250.25;5067509;28;20107;-63
2023/09/07 00:03:41;;;;;;;0.20;0.20;;;;;;;18.30;100.00;100260.16;5083133;28;20100;-63
2023/09/07 00:06:07;;;;;;;0.20;0.20;;;;;;;18.30;100.00;100254.75;5086963;28;20020;-63
2023/09/07 00:08:33;;;;;;;0.20;0.20;;;;;;;18.30;100.00;100251.22;5086757;28;20507;-63
2023/09/07 00:11:05;;;;;;;0.20;0.20;;;;;;;18.19;100.00;100246.47;5086322;28;20452;-62
2023/09/07 00:13:32;;;;;;;0.20;0.20;;;;;;;18.22;100.00;100257.06;5070410;28;20051;-63
2023/09/07 00:16:01;;;;;;;0.17;0.17;;;;;;;18.18;100.00;100255.53;5067126;28;20082;-63
2023/09/07 00:18:27;;;;;;;0.20;0.20;;;;;;;18.11;100.00;100251.47;5067736;28;20021;-63
2023/09/07 00:20:52;;;;;;;0.10;0.10;;;;;;;18.12;100.00;100261.25;5067277;28;20035;-63
2023/09/07 00:23:19;;;;;;;0.10;0.10;;;;;;;18.10;100.00;100252.38;5071828;28;20032;-63
2023/09/07 00:25:45;;;;;;;0.15;0.15;;;;;;;18.06;100.00;100247.28;5071772;28;20055;-63
2023/09/07 00:28:10;;;;;;;0.20;0.20;;;;;;;18.02;100.00;100254.69;5072041;28;20024;-63
2023/09/07 00:30:36;;;;;;;0.20;0.20;;;;;;;17.99;100.00;100244.09;5083856;28;20063;-63
2023/09/07 00:33:01;;;;;;;0.20;0.20;;;;;;;17.98;100.00;100249.56;5084389;28;20027;-63
2023/09/07 00:35:27;;;;;;;0.20;0.20;;;;;;;17.95;100.00;100250.63;5089497;28;20464;-63
2023/09/07 00:37:52;;;;;;;0.20;0.20;;;;;;;17.91;100.00;100245.50;5089345;28;20032;-62
2023/09/07 00:40:17;;;;;;;0.20;0.20;;;;;;;17.90;100.00;100249.16;5083173;28;20358;-63
2023/09/07 00:42:43;;;;;;;0.20;0.20;;;;;;;17.76;100.00;100235.66;5069886;28;20407;-63
2023/09/07 00:45:09;;;;;;;0.20;0.20;;;;;;;17.76;100.00;100247.25;5069188;28;20039;-63
2023/09/07 00:47:37;;;;;;;0.20;0.20;;;;;;;17.71;100.00;100249.34;5080257;28;20180;-63
2023/09/07 00:50:06;;;;;;;0.20;0.20;;;;;;;17.68;100.00;100248.66;5089652;28;20032;-63
2023/09/07 00:52:33;;;;;;;0.20;0.20;;;;;;;17.65;100.00;100244.34;5086382;28;20028;-63
2023/09/07 00:55:06;;;;;;;0.20;0.20;;;;;;;17.60;100.00;100248.25;5088926;28;20027;-63
2023/09/07 00:57:31;;;;;;;0.20;0.20;;;;;;;17.59;100.00;100252.78;5089711;28;20028;-63
2023/09/07 00:59:57;;;;;;;0.20;0.20;;;;;;;17.59;100.00;100249.22;5089667;28;20039;-63
2023/09/07 01:02:23;;;;;;;0.20;0.20;;;;;;;17.54;100.00;100246.78;5084882;28;20036;-62
2023/09/07 01:04:50;;;;;;;0.10;0.10;;;;;;;17.53;100.00;100260.34;5090855;28;20107;-63
2023/09/07 01:07:25;;;;;;;0.20;0.20;;;;;;;17.46;100.00;100259.78;5086065;28;20082;-63
2023/09/07 01:09:54;;;;;;;0.20;0.20;;;;;;;17.39;100.00;100258.38;5089052;28;20040;-63
2023/09/07 01:12:19;;;;;;;0.20;0.20;;;;;;;17.30;100.00;100253.50;5082033;28;20138;-63
2023/09/07 01:14:45;;;;;;;0.20;0.20;;;;;;;17.25;100.00;100260.13;5068913;28;20380;-63
2023/09/07 01:17:13;;;;;;;0.20;0.20;;;;;;;17.22;100.00;100255.75;5078004;28;20028;-63
2023/09/07 01:19:39;;;;;;;0.20;0.20;;;;;;;17.20;100.00;100268.41;5071325;28;20028;-63
2023/09/07 01:22:11;;;;;;;0.20;0.20;;;;;;;17.16;100.00;100253.44;5071246;28;20110;-63
2023/09/07 01:24:38;;;;;;;0.20;0.20;;;;;;;17.08;100.00;100251.16;5072442;28;20028;-63
2023/09/07 01:27:04;;;;;;;0.20;0.20;;;;;;;17.03;100.00;100258.59;5071092;28;20085;-63
2023/09/07 01:29:30;;;;;;;0.20;0.20;;;;;;;16.98;100.00;100266.03;5071726;28;20109;-63
2023/09/07 01:31:57;;;;;;;0.20;0.20;;;;;;;16.96;100.00;100259.03;5075260;28;20031;-63
2023/09/07 01:34:23;;;;;;;0.20;0.20;;;;;;;16.92;100.00;100255.63;5081582;28;20060;-63
2023/09/07 01:36:49;;;;;;;0.20;0.20;;;;;;;16.89;100.00;100263.00;5071752;28;20382;-63
2023/09/07 01:39:16;;;;;;;0.20;0.20;;;;;;;16.90;100.00;100254.00;5070576;28;20111;-63
2023/09/07 01:41:42;;;;;;;0.20;0.20;;;;;;;16.87;100.00;100252.31;5071501;28;20091;-62
2023/09/07 01:44:08;;;;;;;0.20;0.20;;;;;;;16.85;100.00;100256.06;5068204;28;20567;-63
2023/09/07 01:46:33;;;;;;;0.20;0.20;;;;;;;16.82;100.00;100256.19;5069842;28;20135;-62
2023/09/07 01:48:58;;;;;;;0.20;0.20;;;;;;;16.79;100.00;100245.63;5066204;28;20085;-62
2023/09/07 01:51:27;;;;;;;0.20;0.20;;;;;;;16.77;100.00;100247.56;5070641;28;20072;-62
2023/09/07 01:53:53;;;;;;;0.20;0.20;;;;;;;16.73;100.00;100245.97;5084097;28;20435;-62
2023/09/07 01:56:18;;;;;;;0.20;0.20;;;;;;;16.69;100.00;100253.31;5086268;28;20078;-62
2023/09/07 01:58:44;;;;;;;0.10;0.10;;;;;;;16.67;100.00;100251.69;5086698;28;20138;-62
2023/09/07 02:01:31;;;;;;;0.22;0.22;;;;;;;16.64;100.00;100258.06;5082824;28;20040;-62
2023/09/07 02:03:57;;;;;;;0.20;0.20;;;;;;;16.62;100.00;100256.44;5078480;28;20507;-62
2023/09/07 02:06:22;;;;;;;0.15;0.15;;;;;;;16.59;100.00;100248.53;5090482;28;20046;-62
2023/09/07 02:08:48;;;;;;;0.13;0.13;;;;;;;16.56;100.00;100248.69;5089922;28;20051;-62
2023/09/07 02:11:14;;;;;;;0.22;0.22;;;;;;;16.54;100.00;100254.13;5083887;28;20432;-62
2023/09/07 02:13:43;;;;;;;0.20;0.20;;;;;;;16.48;100.00;100250.91;5090284;28;20895;-62
2023/09/07 02:16:08;;;;;;;0.20;0.20;;;;;;;16.51;100.00;100248.94;5090286;28;20032;-63
2023/09/07 02:18:34;;;;;;;0.30;0.30;;;;;;;16.43;100.00;100242.19;5089967;28;20035;-62
2023/09/07 02:21:03;;;;;;;0.20;0.20;;;;;;;16.43;100.00;100247.56;5074780;28;20044;-63
2023/09/07 02:23:30;;;;;;;0.30;0.30;;;;;;;16.45;100.00;100240.31;5070372;28;20325;-63
2023/09/07 02:25:55;;;;;;;0.30;0.30;;;;;;;16.45;100.00;100245.69;5072276;28;20047;-62
2023/09/07 02:28:20;;;;;;;0.20;0.20;;;;;;;16.44;100.00;100249.31;5069836;28;20035;-62
2023/09/07 02:30:46;;;;;;;0.20;0.20;;;;;;;16.39;100.00;100246.00;5074386;28;20504;-62
2023/09/07 02:33:11;;;;;;;0.22;0.22;;;;;;;16.35;100.00;100249.78;5085093;28;20398;-63
2023/09/07 02:35:37;;;;;;;0.20;0.20;;;;;;;16.32;100.00;100247.25;5089378;28;20106;-63
2023/09/07 02:38:03;;;;;;;0.20;0.20;;;;;;;16.29;100.00;100250.13;5083163;28;20075;-63
2023/09/07 02:40:28;;;;;;;0.30;0.30;;;;;;;16.23;100.00;100245.03;5088005;28;20056;-62
2023/09/07 02:42:54;;;;;;;0.20;0.20;;;;;;;16.21;100.00;100247.81;5087287;28;20092;-62
2023/09/07 02:45:19;;;;;;;0.30;0.30;;;;;;;16.22;100.00;100248.69;5086960;28;20085;-62
2023/09/07 02:47:44;;;;;;;0.25;0.25;;;;;;;16.22;100.00;100254.94;5069821;28;20412;-62
2023/09/07 02:50:10;;;;;;;0.20;0.20;;;;;;;16.22;100.00;100259.44;5065693;28;20038;-62
2023/09/07 02:52:35;;;;;;;0.30;0.30;;;;;;;16.29;100.00;100250.13;5069388;28;20028;-62
2023/09/07 02:55:01;;;;;;;0.20;0.20;;;;;;;16.34;100.00;100242.69;5074377;28;20024;-62
2023/09/07 02:57:26;;;;;;;0.22;0.22;;;;;;;16.36;100.00;100251.53;5086665;28;20020;-62
2023/09/07 02:59:53;;;;;;;0.20;0.20;;;;;;;16.33;100.00;100251.69;5086675;28;20503;-62
2023/09/07 03:02:18;;;;;;;0.30;0.30;;;;;;;16.28;100.00;100251.91;5083125;28;20040;-62
2023/09/07 03:04:43;;;;;;;0.20;0.20;;;;;;;16.25;100.00;100253.91;5088605;28;20030;-62
2023/09/07 03:07:09;;;;;;;0.20;0.20;;;;;;;16.17;100.00;100256.09;5088108;28;20825;-63
2023/09/07 03:09:34;;;;;;;0.20;0.20;;;;;;;16.12;100.00;100247.41;5087920;28;20044;-63
2023/09/07 03:12:00;;;;;;;0.30;0.30;;;;;;;16.09;100.00;100247.59;5071698;28;20040;-62
2023/09/07 03:14:25;;;;;;;0.28;0.28;;;;;;;16.04;100.00;100255.00;5068069;28;20025;-62
2023/09/07 03:16:51;;;;;;;0.22;0.22;;;;;;;15.98;100.00;100244.59;5073408;28;20024;-62
2023/09/07 03:19:16;;;;;;;0.20;0.20;;;;;;;15.93;100.00;100242.13;5067921;28;20524;-62
2023/09/07 03:21:42;;;;;;;0.20;0.20;;;;;;;15.90;100.00;100238.75;5078369;28;20034;-63
2023/09/07 03:24:07;;;;;;;0.20;0.20;;;;;;;15.90;100.00;100233.38;5088711;28;20024;-63
2023/09/07 03:26:33;;;;;;;0.20;0.20;;;;;;;15.90;100.00;100231.56;5086069;28;20088;-63
2023/09/07 03:28:58;;;;;;;0.25;0.25;;;;;;;15.84;100.00;100231.88;5078741;28;20043;-62
2023/09/07 03:31:24;;;;;;;0.17;0.17;;;;;;;15.79;100.00;100229.44;5087209;28;20020;-63
2023/09/07 03:33:49;;;;;;;0.30;0.30;;;;;;;15.73;100.00;100237.75;5086941;28;20112;-63
2023/09/07 03:36:15;;;;;;;0.20;0.20;;;;;;;15.67;100.00;100240.75;5083075;28;20031;-63
2023/09/07 03:38:41;;;;;;;0.30;0.30;;;;;;;15.61;100.00;100237.53;5083013;28;20437;-62
2023/09/07 03:41:06;;;;;;;0.20;0.20;;;;;;;15.59;100.00;100245.63;5084150;28;20081;-62
2023/09/07 03:43:32;;;;;;;0.20;0.20;;;;;;;15.56;100.00;100231.50;5082184;28;20039;-62
2023/09/07 03:45:57;;;;;;;0.20;0.20;;;;;;;15.50;100.00;100221.94;5066012;28;20036;-63
2023/09/07 03:48:23;;;;;;;0.20;0.20;;;;;;;15.54;100.00;100238.75;5086108;28;20032;-63
2023/09/07 03:50:48;;;;;;;0.20;0.20;;;;;;;15.51;100.00;100239.78;5086609;28;20028;-63
2023/09/07 03:53:14;;;;;;;0.28;0.28;;;;;;;15.53;100.00;100237.88;5071966;28;20036;-63
2023/09/07 03:55:43;;;;;;;0.30;0.30;;;;;;;15.54;100.00;100234.28;5079453;28;20047;-63
2023/09/07 03:58:10;;;;;;;0.20;0.20;;;;;;;15.53;100.00;100232.50;5091418;28;20020;-63
2023/09/07 04:00:39;;;;;;;0.25;0.25;;;;;;;15.55;100.00;100236.00;5092450;28;20074;-63
2023/09/07 04:03:05;;;;;;;0.30;0.30;;;;;;;15.56;100.00;100235.06;5088102;28;20138;-62
2023/09/07 04:05:31;;;;;;;0.20;0.20;;;;;;;15.56;100.00;100232.38;5091868;28;20028;-62
2023/09/07 04:07:57;;;;;;;0.20;0.20;;;;;;;15.56;100.00;100227.03;5091500;28;20392;-62
2023/09/07 04:10:22;;;;;;;0.20;0.20;;;;;;;15.64;100.00;100235.56;5089286;28;20119;-63
2023/09/07 04:12:48;;;;;;;0.30;0.30;;;;;;;15.63;100.00;100228.44;5071982;28;20132;-63
2023/09/07 04:15:13;;;;;;;0.15;0.15;;;;;;;15.66;100.00;100239.03;5071103;28;20474;-63
2023/09/07 04:17:40;;;;;;;0.30;0.30;;;;;;;15.62;100.00;100245.47;5073805;28;20048;-62
2023/09/07 04:20:07;;;;;;;0.30;0.30;;;;;;;15.67;100.00;100237.19;5074461;28;20357;-62
2023/09/07 04:22:33;;;;;;;0.30;0.30;;;;;;;15.70;100.00;100243.28;5072138;28;20063;-62
2023/09/07 04:24:58;;;;;;;0.20;0.20;;;;;;;15.69;100.00;100238.00;5074168;28;20090;-62
2023/09/07 04:27:24;;;;;;;0.30;0.30;;;;;;;15.66;100.00;100239.03;5071790;28;20029;-62
2023/09/07 04:29:49;;;;;;;0.30;0.30;;;;;;;15.62;100.00;100237.44;5071985;28;20024;-62
2023/09/07 04:32:15;;;;;;;0.20;0.20;;;;;;;15.55;100.00;100230.63;5079872;28;20102;-62
2023/09/07 04:34:40;;;;;;;0.30;0.30;;;;;;;15.59;100.00;100239.41;5088798;28;20077;-62
2023/09/07 04:37:06;;;;;;;0.20;0.20;;;;;;;15.54;100.00;100233.41;5083875;28;20077;-62
2023/09/07 04:39:31;;;;;;;0.20;0.20;;;;;;;15.50;100.00;100237.19;5068882;28;20633;-62
2023/09/07 04:41:57;;;;;;;0.30;0.30;;;;;;;15.45;100.00;100245.44;5083408;28;20083;-62
2023/09/07 04:44:22;;;;;;;0.20;0.20;;;;;;;15.43;100.00;100252.69;5089203;28;20020;-62
2023/09/07 04:46:48;;;;;;;0.30;0.30;;;;;;;15.49;100.00;100252.41;5080111;28;20078;-62
2023/09/07 04:49:13;;;;;;;0.30;0.30;;;;;;;15.48;100.00;100245.31;5068146;28;20055;-62
2023/09/07 04:51:39;;;;;;;0.30;0.30;;;;;;;15.47;100.00;100246.22;5071275;28;20033;-62
2023/09/07 04:54:04;;;;;;;0.30;0.30;;;;;;;15.48;100.00;100256.03;5070379;28;20472;-62
2023/09/07 04:56:30;;;;;;;0.30;0.30;;;;;;;15.42;100.00;100250.94;5089445;28;20059;-62
2023/09/07 04:58:55;;;;;;;0.20;0.20;;;;;;;15.36;100.00;100261.94;5088419;28;20028;-62
2023/09/07 05:01:20;;;;;;;0.30;0.30;;;;;;;15.31;100.00;100255.94;5081257;28;20028;-62
2023/09/07 05:03:46;;;;;;;0.22;0.22;;;;;;;15.28;100.00;100265.94;5089112;28;20111;-62
2023/09/07 05:06:11;;;;;;;0.30;0.30;;;;;;;15.22;100.00;100260.88;5090023;28;20110;-62
2023/09/07 05:08:37;;;;;;;0.30;0.30;;;;;;;15.28;100.00;100255.19;5090245;28;20059;-62
2023/09/07 05:11:03;;;;;;;0.30;0.30;;;;;;;15.32;100.00;100271.06;5084220;28;20392;-62
2023/09/07 05:13:29;;;;;;;0.20;0.20;;;;;;;15.35;100.00;100268.22;5070093;28;20107;-62
2023/09/07 05:15:56;;;;;;;0.30;0.30;;;;;;;15.34;100.00;100271.84;5069817;28;20062;-62
2023/09/07 05:18:22;;;;;;;0.30;0.30;;;;;;;15.34;100.00;100274.53;5072824;28;20032;-62
2023/09/07 05:20:51;;;;;;;0.20;0.20;;;;;;;15.36;100.00;100272.66;5090019;28;20066;-62
2023/09/07 05:23:19;;;;;;;0.30;0.30;;;;;;;15.36;100.00;100261.94;5086665;28;20024;-62
2023/09/07 05:25:52;;;;;;;0.30;0.30;;;;;;;15.42;100.00;100275.06;5090739;28;20039;-62
2023/09/07 05:28:18;;;;;;;0.30;0.30;;;;;;;15.46;100.00;100271.31;5088000;28;20063;-62
2023/09/07 05:30:44;;;;;;;0.20;0.20;;;;;;;15.52;100.00;100283.53;5074059;28;20110;-61
2023/09/07 05:33:10;;;;;;;0.20;0.20;;;;;;;15.60;100.00;100281.38;5082774;28;20479;-62
2023/09/07 05:35:37;;;;;;;0.20;0.20;;;;;;;15.67;100.00;100286.34;5087975;28;20028;-62
2023/09/07 05:38:03;;;;;;;0.30;0.30;;;;;;;15.80;100.00;100300.00;5069678;28;20032;-62
2023/09/07 05:40:29;;;;;;;0.28;0.28;;;;;;;15.86;100.00;100296.16;5081884;28;20373;-61
2023/09/07 05:42:54;;;;;;;0.30;0.30;;;;;;;15.88;100.00;100299.66;5089139;28;20042;-62
2023/09/07 05:45:20;;;;;;;0.20;0.20;;;;;;;15.95;100.00;100299.25;5065547;28;20492;-62
2023/09/07 05:47:45;;;;;;;0.20;0.20;;;;;;;16.02;100.00;100299.81;5069473;28;20024;-62
2023/09/07 05:50:11;;;;;;;0.22;0.22;;;;;;;16.10;100.00;100300.31;5068104;28;20028;-62
2023/09/07 05:52:36;;;;;;;0.30;0.30;;;;;;;16.23;100.00;100298.72;5070459;28;20041;-62
2023/09/07 05:55:02;;;;;;;0.30;0.30;;;;;;;16.30;100.00;100301.03;5068945;28;20028;-62
2023/09/07 05:57:27;;;;;;;0.20;0.20;;;;;;;16.38;100.00;100314.94;5076260;28;20295;-62
2023/09/07 05:59:53;;;;;;;0.20;0.20;;;;;;;16.49;100.00;100319.78;5088664;28;20027;-62
2023/09/07 06:02:18;;;;;;;0.30;0.30;;;;;;;16.61;100.00;100311.06;5088688;28;20085;-62
2023/09/07 06:04:44;;;;;;;0.30;0.30;;;;;;;16.76;100.00;100315.66;5089098;28;20019;-62
2023/09/07 06:07:09;;;;;;;0.30;0.30;;;;;;;16.91;100.00;100314.84;5083855;28;20027;-62
2023/09/07 06:09:35;;;;;;;0.20;0.20;;;;;;;17.07;100.00;100308.56;5074037;28;20067;-62
2023/09/07 06:12:02;;;;;;;0.20;0.20;;;;;;;17.20;100.00;100310.59;5068157;28;20062;-62
2023/09/07 06:14:28;;;;;;;0.30;0.30;;;;;;;17.34;100.00;100308.88;5071026;28;20032;-62
2023/09/07 06:16:53;;;;;;;0.20;0.20;;;;;;;17.50;100.00;100304.38;5068163;28;20024;-62
2023/09/07 06:19:19;;;;;;;0.20;0.20;;;;;;;17.71;100.00;100300.47;5067728;28;20485;-62
2023/09/07 06:21:45;;;;;;;0.20;0.20;;;;;;;17.92;100.00;100306.47;5068973;28;20614;-62
2023/09/07 06:24:10;;;;;;;0.20;0.20;;;;;;;18.25;100.00;100304.50;5070660;28;20028;-62
2023/09/07 06:26:36;;;;;;;0.20;0.20;;;;;;;18.69;100.00;100315.31;5067932;28;20023;-62
2023/09/07 06:29:01;;;;;;;0.20;0.20;;;;;;;19.62;100.00;100317.44;5072030;28;20020;-62
2023/09/07 06:31:27;;;;;;;0.20;0.20;;;;;;;20.54;98.37;100312.13;5069021;28;20040;-62
2023/09/07 06:33:52;;;;;;;0.20;0.20;;;;;;;21.09;91.62;100319.16;5077379;28;20115;-62
2023/09/07 06:36:17;;;;;;;0.20;0.20;;;;;;;21.55;86.68;100325.66;5068356;28;20020;-61
2023/09/07 06:38:43;;;;;;;0.20;0.20;;;;;;;21.54;82.84;100329.38;5070321;28;20051;-61
2023/09/07 06:41:09;;;;;;;0.20;0.20;;;;;;;21.32;81.75;100326.47;5080339;28;20020;-62
2023/09/07 06:43:34;;;;;;;0.20;0.20;;;;;;;21.41;82.19;100331.22;5082413;28;20166;-62
2023/09/07 06:46:07;;;;;;;0.20;0.20;;;;;;;22.83;81.14;100326.78;5069060;28;20532;-61
2023/09/07 06:48:33;;;;;;;0.20;0.20;;;;;;;25.11;71.00;100333.94;5067634;28;20115;-61
2023/09/07 06:51:06;;;;;;;0.17;0.17;;;;;;;26.70;60.54;100331.19;5080433;28;20455;-61
2023/09/07 06:53:32;;;;;;;0.10;0.10;;;;;;;27.56;55.32;100337.31;5088052;28;20035;-61
2023/09/07 06:56:01;;;;;;;0.17;0.17;;;;;;;27.47;53.69;100340.09;5083152;28;20027;-61
2023/09/07 06:58:27;;;;;;;0.10;0.10;;;;;;;26.73;55.62;100339.94;5083465;28;20440;-61
2023/09/07 07:00:57;;;;;;;0.10;0.10;;;;;;;25.79;59.44;100336.88;5087858;28;20103;-61
2023/09/07 07:03:23;;;;;;;0.10;0.10;;;;;;;25.24;61.84;100340.00;5071558;28;20055;-61
2023/09/07 07:05:48;;;;;;;0.10;0.10;;;;;;;24.66;65.43;100338.72;5074408;28;20016;-61
2023/09/07 07:08:14;;;;;;;0.10;0.10;;;;;;;24.13;66.66;100336.09;5077602;28;20097;-61
2023/09/07 07:10:39;;;;;;;0.10;0.10;;;;;;;23.78;69.05;100338.97;5084867;28;20039;-61
2023/09/07 07:13:05;;;;;;;0.10;0.10;;;;;;;23.68;68.60;100326.25;5067402;28;20520;-60
2023/09/07 07:15:30;;;;;;;0.20;0.20;;;;;;;23.77;70.46;100337.25;5067239;28;20020;-61
2023/09/07 07:17:55;;;;;;;0.10;0.10;;;;;;;24.38;68.06;100338.50;5073067;28;20059;-60
2023/09/07 07:20:21;;;;;;;0.10;0.10;;;;;;;24.63;66.55;100347.16;5078731;28;20052;-61
2023/09/07 07:22:46;;;;;;;0.10;0.10;;;;;;;25.22;65.15;100346.63;5082593;28;20069;-60
2023/09/07 07:25:12;;;;;;;0.10;0.10;;;;;;;25.22;62.33;100346.63;5065966;28;20128;-59
2023/09/07 07:27:38;;;;;;;0.10;0.10;;;;;;;24.97;63.72;100342.44;5073994;28;20027;-61
2023/09/07 07:30:04;;;;;;;0.10;0.10;;;;;;;25.13;63.49;100348.28;5070560;28;20036;-60
2023/09/07 07:32:30;;;;;;;0.10;0.10;;;;;;;25.78;61.79;100348.75;5082240;28;20056;-61
2023/09/07 07:34:55;;;;;;;0.10;0.10;;;;;;;26.70;58.98;100350.28;5082605;28;20074;-61
2023/09/07 07:37:20;;;;;;;0.10;0.10;;;;;;;27.15;57.43;100341.31;5066568;28;20054;-61
2023/09/07 07:39:46;;;;;;;0.10;0.10;;;;;;;27.00;55.98;100344.66;5073622;28;20030;-62
2023/09/07 07:42:12;;;;;;;0.10;0.10;;;;;;;27.21;56.13;100345.34;5073291;28;20412;-61
2023/09/07 07:44:37;;;;;;;0.10;0.10;;;;;;;27.38;54.94;100351.94;5083498;28;20153;-61
2023/09/07 07:47:03;;;;;;;0.00;0.00;;;;;;;27.62;55.43;100347.69;5082213;28;20329;-62
2023/09/07 07:49:28;;;;;;;0.00;0.00;;;;;;;27.68;54.23;100346.19;5071968;28;20495;-62
2023/09/07 07:51:55;;;;;;;0.10;0.10;;;;;;;28.05;53.70;100350.69;5072211;28;20031;-62
2023/09/07 07:54:22;;;;;;;0.10;0.10;;;;;;;27.92;53.15;100344.69;5076942;28;20040;-63
2023/09/07 07:56:48;;;;;;;0.03;0.03;;;;;;;27.59;53.92;100344.38;5090136;28;20035;-63
2023/09/07 07:59:13;;;;;;;0.08;0.08;;;;;;;27.18;55.31;100345.63;5087475;28;20028;-63
2023/09/07 08:01:40;;;;;;;0.00;0.00;;;;;;;27.35;56.63;100346.78;5079007;28;20038;-63
2023/09/07 08:04:05;;;;;;;0.05;0.05;;;;;;;27.74;55.52;100353.81;5080864;28;20601;-63
2023/09/07 08:06:31;;;;;;;0.10;0.10;;;;;;;28.06;53.00;100343.31;5073356;28;20111;-63
2023/09/07 08:08:56;;;;;;;0.00;0.00;;;;;;;28.41;53.34;100340.63;5077764;28;20409;-63
2023/09/07 08:11:21;;;;;;;0.00;0.00;;;;;;;28.64;51.91;100349.28;5093862;28;20034;-63
2023/09/07 08:13:47;;;;;;;0.00;0.00;;;;;;;28.79;51.11;100347.69;5080502;28;20522;-62
2023/09/07 08:16:12;;;;;;;0.00;0.00;;;;;;;29.03;50.89;100358.84;5079958;28;20521;-62
2023/09/07 08:18:39;;;;;;;0.00;0.00;;;;;;;28.89;49.64;100348.47;5083859;28;20435;-62
2023/09/07 08:21:05;;;;;;;0.00;0.00;;;;;;;28.78;52.43;100367.91;5074785;28;20020;-63
2023/09/07 08:23:31;;;;;;;0.00;0.00;;;;;;;29.21;51.05;100355.09;5078367;28;20098;-63
2023/09/07 08:25:56;;;;;;;0.00;0.00;;;;;;;29.60;49.76;100353.63;5082157;28;20441;-63
2023/09/07 08:28:22;;;;;;;0.00;0.00;;;;;;;30.04;49.20;100345.31;5074951;28;20378;-62
2023/09/07 08:30:54;;;;;;;0.00;0.00;;;;;;;30.13;47.33;100349.81;5077277;28;20024;-63
2023/09/07 08:33:22;;;;;;;0.00;0.00;;;;;;;30.08;48.17;100339.34;5092421;28;20057;-63
2023/09/07 08:35:55;;;;;;;0.00;0.00;;;;;;;30.46;47.91;100343.41;5095688;28;20042;-63
2023/09/07 08:38:24;;;;;;;0.00;0.00;;;;;;;30.62;47.85;100340.69;5079927;28;20040;-63
2023/09/07 08:40:51;;;;;;;0.00;0.00;;;;;;;30.47;46.31;100350.63;5075535;28;20037;-63
2023/09/07 08:43:18;;;;;;;0.00;0.00;;;;;;;30.36;47.45;100346.28;5072837;28;20054;-64
2023/09/07 08:45:57;;;;;;;0.00;0.00;;;;;;;30.41;47.25;100346.66;5085126;28;20024;-64
2023/09/07 08:48:25;;;;;;;0.00;0.00;;;;;;;29.49;48.23;100347.56;5088742;28;20050;-65
2023/09/07 08:50:52;;;;;;;0.00;0.00;;;;;;;29.73;49.89;100355.97;5080805;28;20039;-65
2023/09/07 08:53:19;;;;;;;0.00;0.00;;;;;;;30.21;48.41;100334.22;5077614;28;20028;-65
2023/09/07 08:55:44;;;;;;;0.00;0.00;;;;;;;30.50;47.66;100336.53;5086874;28;20032;-65
2023/09/07 08:58:10;;;;;;;0.00;0.00;;;;;;;31.08;48.14;100341.94;5073938;28;20163;-66
2023/09/07 09:00:37;;;;;;;0.00;0.00;;;;;;;31.33;45.22;100351.91;5087582;28;20084;-65
2023/09/07 09:03:03;;;;;;;0.00;0.00;;;;;;;31.34;45.16;100353.63;5083955;28;20028;-66
2023/09/07 09:05:30;;;;;;;0.00;0.00;;;;;;;31.55;45.39;100348.44;5074110;28;20374;-66
2023/09/07 09:08:05;;;;;;;0.00;0.00;;;;;;;31.89;44.88;100358.16;5081919;28;20031;-66
2023/09/07 09:10:31;;;;;;;0.00;0.00;;;;;;;32.09;45.14;100350.34;5071182;28;20052;-66
2023/09/07 09:12:59;;;;;;;0.00;0.00;;;;;;;32.48;43.33;100353.94;5071557;28;20073;-66
2023/09/07 09:15:25;;;;;;;0.00;0.00;;;;;;;32.51;42.24;100359.06;5084074;28;20119;-66
2023/09/07 09:17:50;;;;;;;0.00;0.00;;;;;;;32.61;43.91;100356.94;5073761;28;20111;-66
2023/09/07 09:20:26;;;;;;;0.00;0.00;;;;;;;32.68;42.57;100360.69;5075041;28;20025;-66
2023/09/07 09:22:53;;;;;;;0.00;0.00;;;;;;;32.78;41.54;100352.16;5071983;28;20025;-67
2023/09/07 09:25:19;;;;;;;0.00;0.00;;;;;;;32.99;42.46;100353.22;5071116;28;20111;-66
2023/09/07 09:27:44;;;;;;;0.00;0.00;;;;;;;33.43;42.19;100344.25;5083996;28;20107;-66
2023/09/07 09:30:10;;;;;;;0.00;0.00;;;;;;;33.53;40.86;100344.78;5079238;28;20036;-67
2023/09/07 09:32:36;;;;;;;0.00;0.00;;;;;;;33.79;40.52;100343.28;5083735;28;20047;-66
2023/09/07 09:35:05;;;;;;;0.00;0.00;;;;;;;33.87;39.38;100340.44;5088753;28;20396;-66
2023/09/07 09:37:31;;;;;;;0.00;0.00;;;;;;;33.88;40.14;100339.41;5091132;28;20032;-66
2023/09/07 09:39:59;;;;;;;0.00;0.00;;;;;;;33.89;40.01;100337.50;5088913;28;20447;-65
2023/09/07 09:42:26;;;;;;;0.00;0.00;;;;;;;33.94;40.22;100337.81;5070000;28;20020;-66
2023/09/07 09:44:54;;;;;;;0.00;0.00;;;;;;;33.82;40.81;100342.06;5068919;28;20021;-65
2023/09/07 09:47:21;;;;;;;0.00;0.00;;;;;;;33.66;40.92;100334.81;5069803;28;20024;-66
2023/09/07 09:49:48;;;;;;;0.00;0.00;;;;;;;33.58;41.25;100337.69;5072243;28;20089;-66
2023/09/07 09:52:15;;;;;;;0.00;0.00;;;;;;;33.74;41.42;100334.72;5068823;28;20115;-65
2023/09/07 09:54:42;;;;;;;0.00;0.00;;;;;;;34.00;41.46;100323.25;5081557;28;20020;-66
2023/09/07 09:57:07;;;;;;;0.00;0.00;;;;;;;34.24;40.04;100328.41;5086691;28;20016;-66
2023/09/07 09:59:34;;;;;;;0.00;0.00;;;;;;;34.28;39.42;100324.22;5077627;28;20033;-65
2023/09/07 10:02:01;;;;;;;0.00;0.00;;;;;;;34.27;40.92;100322.50;5074939;28;20036;-66
2023/09/07 10:04:29;;;;;;;0.00;0.00;;;;;;;34.37;40.27;100325.81;5072615;28;20043;-65
2023/09/07 10:07:05;;;;;;;0.00;0.00;;;;;;;34.02;39.73;100327.50;5068765;28;20074;-65
2023/09/07 10:09:33;;;;;;;0.00;0.00;;;;;;;33.49;40.51;100316.75;5067171;28;20052;-66
2023/09/07 10:11:59;;;;;;;0.00;0.00;;;;;;;33.82;40.96;100312.56;5067816;28;20024;-66
2023/09/07 10:14:25;;;;;;;0.00;0.00;;;;;;;34.34;39.86;100323.44;5083220;28;20491;-66
2023/09/07 10:16:55;;;;;;;0.00;0.00;;;;;;;34.57;39.36;100321.41;5089247;28;20438;-66
2023/09/07 10:19:23;;;;;;;0.00;0.00;;;;;;;34.84;39.19;100326.16;5084909;28;20061;-66
2023/09/07 10:21:53;;;;;;;0.00;0.00;;;;;;;35.24;38.43;100328.22;5072625;28;20059;-67
2023/09/07 10:24:29;;;;;;;0.00;0.00;;;;;;;34.93;38.10;100316.69;5069264;28;20031;-66
2023/09/07 10:27:02;;;;;;;0.00;0.00;;;;;;;34.74;38.18;100309.03;5071371;28;20103;-66
2023/09/07 10:29:28;;;;;;;0.00;0.00;;;;;;;34.35;37.89;100303.91;5080212;28;20028;-66
2023/09/07 10:31:53;;;;;;;0.00;0.00;;;;;;;34.58;38.90;100308.44;5074888;28;20065;-66
2023/09/07 10:34:20;;;;;;;0.00;0.00;;;;;;;34.31;39.67;100298.97;5088285;28;20388;-67
2023/09/07 10:36:46;;;;;;;0.00;0.00;;;;;;;34.66;39.25;100308.31;5088161;28;20039;-66
2023/09/07 10:39:12;;;;;;;0.00;0.00;;;;;;;35.10;39.46;100300.66;5084095;28;20442;-67
2023/09/07 10:41:45;;;;;;;0.00;0.00;;;;;;;35.22;38.31;100290.75;5087625;28;20035;-67
2023/09/07 10:44:10;;;;;;;;;;;;;;;35.10;37.79;100289.59;5088789;28;20081;-67
2023/09/07 10:46:37;;;;;;;0.00;0.00;;;;;;;35.15;37.21;100293.47;5085100;28;19912;-67
2023/09/07 10:49:06;;;;;;;0.00;0.00;;;;;;;35.32;38.45;100289.34;5077039;28;20028;-67
2023/09/07 10:51:31;;;;;;;0.00;0.00;;;;;;;35.51;38.54;100291.44;5068635;28;20032;-67
2023/09/07 10:53:57;;;;;;;0.00;0.00;;;;;;;35.79;36.80;100278.38;5069223;28;20034;-67
2023/09/07 10:56:26;;;;;;;0.00;0.00;;;;;;;35.71;37.63;100281.31;5087188;28;20027;-67
2023/09/07 10:58:54;;;;;;;0.00;0.00;;;;;;;35.87;36.84;100282.09;5084576;28;20035;-67
2023/09/07 11:01:20;;;;;;;0.00;0.00;;;;;;;36.14;36.88;100275.56;5073972;28;20024;-67
2023/09/07 11:03:45;;;;;;;0.00;0.00;;;;;;;36.20;38.03;100278.34;5083509;28;20108;-67
2023/09/07 11:06:20;;;;;;;0.00;0.00;;;;;;;36.42;36.57;100273.56;5087022;28;20019;-67
2023/09/07 11:08:48;;;;;;;0.00;0.00;;;;;;;36.04;37.22;100273.19;5070194;28;20405;-67
2023/09/07 11:11:14;;;;;;;0.00;0.00;;;;;;;35.86;37.21;100277.59;5066663;28;20450;-68
2023/09/07 11:13:39;;;;;;;0.00;0.00;;;;;;;35.99;37.83;100270.19;5071283;28;20380;-67
2023/09/07 11:16:08;;;;;;;0.00;0.00;;;;;;;36.42;37.82;100273.56;5067625;28;20073;-67
2023/09/07 11:18:37;;;;;;;0.00;0.00;;;;;;;36.77;37.33;100272.34;5068572;28;20033;-67